sensor_id;sensor_type;location;lat;lon;timestamp;P1;durP1;ratioP1;P2;durP2;ratioP2
14235;SDS011;7202;50.718;7.072;2022-08-20T00:00:12;2.13;;;1.50;;
14235;SDS011;7202;50.718;7.072;2022-08-20T00:02:44;1.52;;;1.42;;
14235;SDS011;7202;50.718;7.072;2022-08-20T00:05:14;3.22;;;1.67;;
14235;SDS011;7202;50.718;7.072;2022-08-20T00:07:47;1.90;;;1.70;;
14235;SDS011;7202;50.718;7.072;2022-08-20T00:10:16;5.20;;;1.80;;
14235;SDS011;7202;50.718;7.072;2022-08-20T00:12:47;2.65;;;1.52;;
14235;SDS011;7202;50.718;7.072;2022-08-20T00:15:19;2.13;;;1.50;;
14235;SDS011;7202;50.718;7.072;2022-08-20T00:17:51;1.70;;;1.50;;
14235;SDS011;7202;50.718;7.072;2022-08-20T00:20:21;1.95;;;1.65;;
14235;SDS011;7202;50.718;7.072;2022-08-20T00:22:51;1.90;;;1.70;;
14235;SDS011;7202;50.718;7.072;2022-08-20T00:25:20;1.63;;;1.52;;
14235;SDS011;7202;50.718;7.072;2022-08-20T00:27:49;2.88;;;2.00;;
14235;SDS011;7202;50.718;7.072;2022-08-20T00:30:20;1.70;;;1.60;;
14235;SDS011;7202;50.718;7.072;2022-08-20T00:32:50;2.45;;;2.25;;
14235;SDS011;7202;50.718;7.072;2022-08-20T00:35:23;3.03;;;2.17;;
14235;SDS011;7202;50.718;7.072;2022-08-20T00:37:53;2.50;;;2.30;;
14235;SDS011;7202;50.718;7.072;2022-08-20T00:40:27;2.40;;;2.20;;
14235;SDS011;7202;50.718;7.072;2022-08-20T00:42:59;1.80;;;1.65;;
14235;SDS011;7202;50.718;7.072;2022-08-20T00:45:31;3.45;;;2.08;;
14235;SDS011;7202;50.718;7.072;2022-08-20T00:48:02;2.65;;;1.90;;
14235;SDS011;7202;50.718;7.072;2022-08-20T00:50:32;2.58;;;2.25;;
14235;SDS011;7202;50.718;7.072;2022-08-20T00:53:03;2.97;;;1.95;;
14235;SDS011;7202;50.718;7.072;2022-08-20T00:55:33;2.13;;;1.90;;
14235;SDS011;7202;50.718;7.072;2022-08-20T00:58:05;3.22;;;2.05;;
14235;SDS011;7202;50.718;7.072;2022-08-20T01:00:38;2.25;;;1.70;;
14235;SDS011;7202;50.718;7.072;2022-08-20T01:03:10;2.00;;;1.90;;
14235;SDS011;7202;50.718;7.072;2022-08-20T01:05:42;2.88;;;2.35;;
14235;SDS011;7202;50.718;7.072;2022-08-20T01:08:13;4.68;;;2.20;;
14235;SDS011;7202;50.718;7.072;2022-08-20T01:10:44;2.85;;;1.98;;
14235;SDS011;7202;50.718;7.072;2022-08-20T01:13:16;2.28;;;1.95;;
14235;SDS011;7202;50.718;7.072;2022-08-20T01:15:49;3.22;;;1.80;;
14235;SDS011;7202;50.718;7.072;2022-08-20T01:18:23;2.78;;;2.10;;
14235;SDS011;7202;50.718;7.072;2022-08-20T01:20:54;2.00;;;1.80;;
14235;SDS011;7202;50.718;7.072;2022-08-20T01:23:27;2.13;;;1.85;;
14235;SDS011;7202;50.718;7.072;2022-08-20T01:26:03;3.92;;;1.90;;
14235;SDS011;7202;50.718;7.072;2022-08-20T01:28:36;2.42;;;2.22;;
14235;SDS011;7202;50.718;7.072;2022-08-20T01:31:08;2.40;;;1.92;;
14235;SDS011;7202;50.718;7.072;2022-08-20T01:33:40;3.13;;;1.92;;
14235;SDS011;7202;50.718;7.072;2022-08-20T01:36:12;2.75;;;2.03;;
14235;SDS011;7202;50.718;7.072;2022-08-20T01:38:43;2.83;;;2.30;;
14235;SDS011;7202;50.718;7.072;2022-08-20T01:41:38;4.00;;;2.20;;
14235;SDS011;7202;50.718;7.072;2022-08-20T01:44:15;1.88;;;1.75;;
14235;SDS011;7202;50.718;7.072;2022-08-20T01:46:46;2.28;;;2.08;;
14235;SDS011;7202;50.718;7.072;2022-08-20T01:49:18;3.58;;;1.75;;
14235;SDS011;7202;50.718;7.072;2022-08-20T01:51:50;3.15;;;2.35;;
14235;SDS011;7202;50.718;7.072;2022-08-20T01:54:20;3.25;;;2.33;;
14235;SDS011;7202;50.718;7.072;2022-08-20T01:56:55;3.58;;;2.30;;
14235;SDS011;7202;50.718;7.072;2022-08-20T01:59:27;4.45;;;2.25;;
14235;SDS011;7202;50.718;7.072;2022-08-20T02:01:56;2.60;;;1.92;;
14235;SDS011;7202;50.718;7.072;2022-08-20T02:04:25;2.38;;;2.17;;
14235;SDS011;7202;50.718;7.072;2022-08-20T02:06:55;2.17;;;1.98;;
14235;SDS011;7202;50.718;7.072;2022-08-20T02:09:26;2.63;;;2.10;;
14235;SDS011;7202;50.718;7.072;2022-08-20T02:11:58;2.20;;;1.88;;
14235;SDS011;7202;50.718;7.072;2022-08-20T02:14:29;3.30;;;1.77;;
14235;SDS011;7202;50.718;7.072;2022-08-20T02:16:58;3.05;;;2.20;;
14235;SDS011;7202;50.718;7.072;2022-08-20T02:19:29;2.63;;;1.85;;
14235;SDS011;7202;50.718;7.072;2022-08-20T02:22:03;2.92;;;2.00;;
14235;SDS011;7202;50.718;7.072;2022-08-20T02:24:36;2.85;;;2.10;;
14235;SDS011;7202;50.718;7.072;2022-08-20T02:27:05;2.30;;;2.10;;
14235;SDS011;7202;50.718;7.072;2022-08-20T02:29:34;5.68;;;2.33;;
14235;SDS011;7202;50.718;7.072;2022-08-20T02:32:03;5.90;;;3.00;;
14235;SDS011;7202;50.718;7.072;2022-08-20T02:34:53;3.08;;;2.55;;
14235;SDS011;7202;50.718;7.072;2022-08-20T02:37:22;4.28;;;2.30;;
14235;SDS011;7202;50.718;7.072;2022-08-20T02:39:50;5.13;;;2.58;;
14235;SDS011;7202;50.718;7.072;2022-08-20T02:42:20;4.43;;;3.28;;
14235;SDS011;7202;50.718;7.072;2022-08-20T02:44:49;7.10;;;2.83;;
14235;SDS011;7202;50.718;7.072;2022-08-20T02:47:19;3.50;;;2.90;;
14235;SDS011;7202;50.718;7.072;2022-08-20T02:49:48;6.85;;;3.20;;
14235;SDS011;7202;50.718;7.072;2022-08-20T02:52:16;3.50;;;2.92;;
14235;SDS011;7202;50.718;7.072;2022-08-20T02:54:45;5.28;;;2.88;;
14235;SDS011;7202;50.718;7.072;2022-08-20T02:57:15;3.25;;;2.60;;
14235;SDS011;7202;50.718;7.072;2022-08-20T02:59:48;3.55;;;2.67;;
14235;SDS011;7202;50.718;7.072;2022-08-20T03:02:18;3.20;;;2.60;;
14235;SDS011;7202;50.718;7.072;2022-08-20T03:04:47;3.30;;;2.47;;
14235;SDS011;7202;50.718;7.072;2022-08-20T03:07:16;2.90;;;2.70;;
14235;SDS011;7202;50.718;7.072;2022-08-20T03:09:44;3.45;;;2.85;;
14235;SDS011;7202;50.718;7.072;2022-08-20T03:12:13;2.85;;;2.65;;
14235;SDS011;7202;50.718;7.072;2022-08-20T03:14:42;3.38;;;2.47;;
14235;SDS011;7202;50.718;7.072;2022-08-20T03:17:12;4.25;;;2.90;;
14235;SDS011;7202;50.718;7.072;2022-08-20T03:19:40;3.30;;;2.38;;
14235;SDS011;7202;50.718;7.072;2022-08-20T03:22:09;2.78;;;2.55;;
14235;SDS011;7202;50.718;7.072;2022-08-20T03:24:38;4.60;;;2.85;;
14235;SDS011;7202;50.718;7.072;2022-08-20T03:27:06;3.92;;;2.92;;
14235;SDS011;7202;50.718;7.072;2022-08-20T03:29:37;3.60;;;2.88;;
14235;SDS011;7202;50.718;7.072;2022-08-20T03:32:06;3.25;;;2.80;;
14235;SDS011;7202;50.718;7.072;2022-08-20T03:34:36;2.90;;;2.50;;
14235;SDS011;7202;50.718;7.072;2022-08-20T03:37:05;3.75;;;2.95;;
14235;SDS011;7202;50.718;7.072;2022-08-20T03:39:33;2.83;;;2.58;;
14235;SDS011;7202;50.718;7.072;2022-08-20T03:42:02;3.67;;;2.78;;
14235;SDS011;7202;50.718;7.072;2022-08-20T03:44:31;3.75;;;2.88;;
14235;SDS011;7202;50.718;7.072;2022-08-20T03:47:02;6.22;;;2.83;;
14235;SDS011;7202;50.718;7.072;2022-08-20T03:49:33;3.33;;;3.03;;
14235;SDS011;7202;50.718;7.072;2022-08-20T03:52:04;3.33;;;2.40;;
14235;SDS011;7202;50.718;7.072;2022-08-20T03:54:33;3.55;;;2.42;;
14235;SDS011;7202;50.718;7.072;2022-08-20T03:57:02;2.70;;;2.42;;
14235;SDS011;7202;50.718;7.072;2022-08-20T03:59:38;2.60;;;2.40;;
14235;SDS011;7202;50.718;7.072;2022-08-20T04:02:07;3.40;;;2.88;;
14235;SDS011;7202;50.718;7.072;2022-08-20T04:04:37;4.05;;;2.95;;
14235;SDS011;7202;50.718;7.072;2022-08-20T04:07:11;5.43;;;3.00;;
14235;SDS011;7202;50.718;7.072;2022-08-20T04:09:41;3.08;;;2.78;;
14235;SDS011;7202;50.718;7.072;2022-08-20T04:12:10;4.35;;;3.10;;
14235;SDS011;7202;50.718;7.072;2022-08-20T04:14:39;3.13;;;2.78;;
14235;SDS011;7202;50.718;7.072;2022-08-20T04:17:08;3.60;;;2.83;;
14235;SDS011;7202;50.718;7.072;2022-08-20T04:19:39;4.30;;;3.20;;
14235;SDS011;7202;50.718;7.072;2022-08-20T04:22:11;3.42;;;3.03;;
14235;SDS011;7202;50.718;7.072;2022-08-20T04:24:40;4.15;;;2.95;;
14235;SDS011;7202;50.718;7.072;2022-08-20T04:27:09;3.83;;;3.20;;
14235;SDS011;7202;50.718;7.072;2022-08-20T04:29:40;3.15;;;2.85;;
14235;SDS011;7202;50.718;7.072;2022-08-20T04:32:10;4.43;;;3.30;;
14235;SDS011;7202;50.718;7.072;2022-08-20T04:34:42;3.40;;;3.00;;
14235;SDS011;7202;50.718;7.072;2022-08-20T04:37:14;5.05;;;3.45;;
14235;SDS011;7202;50.718;7.072;2022-08-20T04:39:48;4.72;;;3.17;;
14235;SDS011;7202;50.718;7.072;2022-08-20T04:42:31;3.95;;;2.92;;
14235;SDS011;7202;50.718;7.072;2022-08-20T04:45:00;3.78;;;3.47;;
14235;SDS011;7202;50.718;7.072;2022-08-20T04:47:28;5.00;;;3.50;;
14235;SDS011;7202;50.718;7.072;2022-08-20T04:50:00;4.85;;;3.92;;
14235;SDS011;7202;50.718;7.072;2022-08-20T04:52:30;3.95;;;3.55;;
14235;SDS011;7202;50.718;7.072;2022-08-20T04:54:59;4.07;;;3.70;;
14235;SDS011;7202;50.718;7.072;2022-08-20T04:57:31;5.57;;;4.53;;
14235;SDS011;7202;50.718;7.072;2022-08-20T05:00:03;4.38;;;3.95;;
14235;SDS011;7202;50.718;7.072;2022-08-20T05:02:33;4.70;;;4.30;;
14235;SDS011;7202;50.718;7.072;2022-08-20T05:05:02;4.90;;;4.20;;
14235;SDS011;7202;50.718;7.072;2022-08-20T05:07:35;4.43;;;4.03;;
14235;SDS011;7202;50.718;7.072;2022-08-20T05:10:08;6.72;;;4.38;;
14235;SDS011;7202;50.718;7.072;2022-08-20T05:12:41;5.00;;;4.50;;
14235;SDS011;7202;50.718;7.072;2022-08-20T05:15:23;5.00;;;4.07;;
14235;SDS011;7202;50.718;7.072;2022-08-20T05:17:55;5.05;;;4.55;;
14235;SDS011;7202;50.718;7.072;2022-08-20T05:20:26;7.72;;;5.03;;
14235;SDS011;7202;50.718;7.072;2022-08-20T05:22:59;5.75;;;5.15;;
14235;SDS011;7202;50.718;7.072;2022-08-20T05:25:28;7.57;;;6.15;;
14235;SDS011;7202;50.718;7.072;2022-08-20T05:27:58;6.15;;;5.53;;
14235;SDS011;7202;50.718;7.072;2022-08-20T05:30:28;6.18;;;5.57;;
14235;SDS011;7202;50.718;7.072;2022-08-20T05:33:00;7.05;;;6.05;;
14235;SDS011;7202;50.718;7.072;2022-08-20T05:35:30;8.57;;;7.15;;
14235;SDS011;7202;50.718;7.072;2022-08-20T05:38:03;7.25;;;6.45;;
14235;SDS011;7202;50.718;7.072;2022-08-20T05:40:32;8.07;;;7.07;;
14235;SDS011;7202;50.718;7.072;2022-08-20T05:43:01;8.15;;;7.35;;
14235;SDS011;7202;50.718;7.072;2022-08-20T05:45:32;11.30;;;7.25;;
14235;SDS011;7202;50.718;7.072;2022-08-20T05:48:03;8.30;;;6.40;;
14235;SDS011;7202;50.718;7.072;2022-08-20T05:50:32;9.48;;;7.60;;
14235;SDS011;7202;50.718;7.072;2022-08-20T05:53:03;8.88;;;7.97;;
14235;SDS011;7202;50.718;7.072;2022-08-20T05:55:32;7.72;;;6.93;;
14235;SDS011;7202;50.718;7.072;2022-08-20T05:58:04;7.95;;;7.10;;
14235;SDS011;7202;50.718;7.072;2022-08-20T06:00:34;7.35;;;6.65;;
14235;SDS011;7202;50.718;7.072;2022-08-20T06:03:03;10.15;;;7.47;;
14235;SDS011;7202;50.718;7.072;2022-08-20T06:05:48;10.10;;;8.35;;
14235;SDS011;7202;50.718;7.072;2022-08-20T06:08:18;9.82;;;8.45;;
14235;SDS011;7202;50.718;7.072;2022-08-20T06:10:47;10.95;;;8.50;;
14235;SDS011;7202;50.718;7.072;2022-08-20T06:13:16;10.98;;;8.48;;
14235;SDS011;7202;50.718;7.072;2022-08-20T06:15:44;8.77;;;7.78;;
14235;SDS011;7202;50.718;7.072;2022-08-20T06:18:13;10.70;;;8.73;;
14235;SDS011;7202;50.718;7.072;2022-08-20T06:20:54;10.25;;;9.15;;
14235;SDS011;7202;50.718;7.072;2022-08-20T06:23:25;8.30;;;7.50;;
14235;SDS011;7202;50.718;7.072;2022-08-20T06:26:13;10.07;;;8.50;;
14235;SDS011;7202;50.718;7.072;2022-08-20T06:28:50;9.48;;;8.48;;
14235;SDS011;7202;50.718;7.072;2022-08-20T06:31:20;10.43;;;8.93;;
14235;SDS011;7202;50.718;7.072;2022-08-20T06:33:49;10.57;;;9.48;;
14235;SDS011;7202;50.718;7.072;2022-08-20T06:36:18;14.00;;;9.02;;
14235;SDS011;7202;50.718;7.072;2022-08-20T06:38:48;10.00;;;9.00;;
14235;SDS011;7202;50.718;7.072;2022-08-20T06:41:17;10.93;;;9.85;;
14235;SDS011;7202;50.718;7.072;2022-08-20T06:43:46;9.73;;;8.63;;
14235;SDS011;7202;50.718;7.072;2022-08-20T06:46:14;11.63;;;9.80;;
14235;SDS011;7202;50.718;7.072;2022-08-20T06:48:43;9.43;;;8.43;;
14235;SDS011;7202;50.718;7.072;2022-08-20T06:51:12;13.23;;;8.90;;
14235;SDS011;7202;50.718;7.072;2022-08-20T06:53:40;9.38;;;8.27;;
14235;SDS011;7202;50.718;7.072;2022-08-20T06:56:10;9.75;;;8.75;;
14235;SDS011;7202;50.718;7.072;2022-08-20T06:58:39;9.57;;;8.63;;
14235;SDS011;7202;50.718;7.072;2022-08-20T07:01:10;10.05;;;8.60;;
14235;SDS011;7202;50.718;7.072;2022-08-20T07:03:40;11.85;;;8.85;;
14235;SDS011;7202;50.718;7.072;2022-08-20T07:06:22;9.15;;;8.25;;
14235;SDS011;7202;50.718;7.072;2022-08-20T07:08:52;9.98;;;8.18;;
14235;SDS011;7202;50.718;7.072;2022-08-20T07:11:22;7.78;;;6.97;;
14235;SDS011;7202;50.718;7.072;2022-08-20T07:13:54;8.23;;;7.47;;
14235;SDS011;7202;50.718;7.072;2022-08-20T07:16:25;8.38;;;7.57;;
14235;SDS011;7202;50.718;7.072;2022-08-20T07:18:53;9.63;;;8.27;;
14235;SDS011;7202;50.718;7.072;2022-08-20T07:21:22;8.43;;;7.63;;
14235;SDS011;7202;50.718;7.072;2022-08-20T07:23:51;7.78;;;6.93;;
14235;SDS011;7202;50.718;7.072;2022-08-20T07:26:20;8.07;;;7.30;;
14235;SDS011;7202;50.718;7.072;2022-08-20T07:28:50;9.00;;;8.15;;
14235;SDS011;7202;50.718;7.072;2022-08-20T07:31:20;8.60;;;7.38;;
14235;SDS011;7202;50.718;7.072;2022-08-20T07:34:08;9.82;;;8.25;;
14235;SDS011;7202;50.718;7.072;2022-08-20T07:36:37;7.63;;;6.82;;
14235;SDS011;7202;50.718;7.072;2022-08-20T07:39:06;7.85;;;6.00;;
14235;SDS011;7202;50.718;7.072;2022-08-20T07:41:35;8.25;;;6.45;;
14235;SDS011;7202;50.718;7.072;2022-08-20T07:44:05;6.85;;;5.85;;
14235;SDS011;7202;50.718;7.072;2022-08-20T07:46:34;7.50;;;5.72;;
14235;SDS011;7202;50.718;7.072;2022-08-20T07:49:02;6.85;;;5.47;;
14235;SDS011;7202;50.718;7.072;2022-08-20T07:51:35;6.60;;;5.20;;
14235;SDS011;7202;50.718;7.072;2022-08-20T07:54:04;6.05;;;5.43;;
14235;SDS011;7202;50.718;7.072;2022-08-20T07:56:32;6.10;;;5.47;;
14235;SDS011;7202;50.718;7.072;2022-08-20T07:59:02;5.38;;;4.85;;
14235;SDS011;7202;50.718;7.072;2022-08-20T08:01:33;5.30;;;4.90;;
14235;SDS011;7202;50.718;7.072;2022-08-20T08:04:02;6.20;;;5.55;;
14235;SDS011;7202;50.718;7.072;2022-08-20T08:06:31;5.65;;;5.07;;
14235;SDS011;7202;50.718;7.072;2022-08-20T08:09:01;7.63;;;5.40;;
14235;SDS011;7202;50.718;7.072;2022-08-20T08:11:32;7.15;;;5.80;;
14235;SDS011;7202;50.718;7.072;2022-08-20T08:14:04;6.82;;;6.13;;
14235;SDS011;7202;50.718;7.072;2022-08-20T08:16:36;6.65;;;6.07;;
14235;SDS011;7202;50.718;7.072;2022-08-20T08:19:06;6.57;;;5.93;;
14235;SDS011;7202;50.718;7.072;2022-08-20T08:21:37;12.00;;;6.43;;
14235;SDS011;7202;50.718;7.072;2022-08-20T08:24:07;6.65;;;5.88;;
14235;SDS011;7202;50.718;7.072;2022-08-20T08:26:40;6.95;;;5.85;;
14235;SDS011;7202;50.718;7.072;2022-08-20T08:29:08;8.20;;;7.40;;
14235;SDS011;7202;50.718;7.072;2022-08-20T08:31:39;7.65;;;6.95;;
14235;SDS011;7202;50.718;7.072;2022-08-20T08:34:08;7.85;;;6.97;;
14235;SDS011;7202;50.718;7.072;2022-08-20T08:36:37;9.43;;;7.88;;
14235;SDS011;7202;50.718;7.072;2022-08-20T08:39:06;8.65;;;7.47;;
14235;SDS011;7202;50.718;7.072;2022-08-20T08:41:35;8.68;;;7.88;;
14235;SDS011;7202;50.718;7.072;2022-08-20T08:44:16;8.80;;;8.00;;
14235;SDS011;7202;50.718;7.072;2022-08-20T08:46:52;8.80;;;8.00;;
14235;SDS011;7202;50.718;7.072;2022-08-20T08:49:24;8.98;;;8.07;;
14235;SDS011;7202;50.718;7.072;2022-08-20T08:52:06;8.32;;;7.47;;
14235;SDS011;7202;50.718;7.072;2022-08-20T08:54:38;9.55;;;8.65;;
14235;SDS011;7202;50.718;7.072;2022-08-20T08:57:11;8.77;;;7.88;;
14235;SDS011;7202;50.718;7.072;2022-08-20T08:59:40;10.35;;;9.35;;
14235;SDS011;7202;50.718;7.072;2022-08-20T09:02:31;10.00;;;9.00;;
14235;SDS011;7202;50.718;7.072;2022-08-20T09:05:03;9.32;;;8.43;;
14235;SDS011;7202;50.718;7.072;2022-08-20T09:07:42;12.82;;;10.20;;
14235;SDS011;7202;50.718;7.072;2022-08-20T09:10:13;9.75;;;8.85;;
14235;SDS011;7202;50.718;7.072;2022-08-20T09:12:48;10.30;;;9.25;;
14235;SDS011;7202;50.718;7.072;2022-08-20T09:15:18;9.48;;;8.55;;
14235;SDS011;7202;50.718;7.072;2022-08-20T09:17:49;9.55;;;8.75;;
14235;SDS011;7202;50.718;7.072;2022-08-20T09:20:18;10.00;;;9.20;;
14235;SDS011;7202;50.718;7.072;2022-08-20T09:22:52;9.98;;;8.73;;
14235;SDS011;7202;50.718;7.072;2022-08-20T09:25:22;8.82;;;7.93;;
14235;SDS011;7202;50.718;7.072;2022-08-20T09:27:50;9.15;;;8.10;;
14235;SDS011;7202;50.718;7.072;2022-08-20T09:30:20;7.95;;;7.25;;
14235;SDS011;7202;50.718;7.072;2022-08-20T09:32:50;8.63;;;7.45;;
14235;SDS011;7202;50.718;7.072;2022-08-20T09:35:19;7.65;;;6.95;;
14235;SDS011;7202;50.718;7.072;2022-08-20T09:37:48;8.23;;;6.20;;
14235;SDS011;7202;50.718;7.072;2022-08-20T09:40:18;7.15;;;6.30;;
14235;SDS011;7202;50.718;7.072;2022-08-20T09:42:48;6.47;;;5.88;;
14235;SDS011;7202;50.718;7.072;2022-08-20T09:45:17;7.63;;;6.82;;
14235;SDS011;7202;50.718;7.072;2022-08-20T09:47:46;6.50;;;5.75;;
14235;SDS011;7202;50.718;7.072;2022-08-20T09:50:24;8.70;;;5.75;;
14235;SDS011;7202;50.718;7.072;2022-08-20T09:52:54;7.50;;;5.63;;
14235;SDS011;7202;50.718;7.072;2022-08-20T09:55:26;6.53;;;5.50;;
14235;SDS011;7202;50.718;7.072;2022-08-20T09:57:59;5.55;;;5.05;;
14235;SDS011;7202;50.718;7.072;2022-08-20T10:00:29;6.63;;;5.15;;
14235;SDS011;7202;50.718;7.072;2022-08-20T10:02:57;5.32;;;4.82;;
14235;SDS011;7202;50.718;7.072;2022-08-20T10:05:29;6.45;;;5.60;;
14235;SDS011;7202;50.718;7.072;2022-08-20T10:07:58;6.18;;;5.25;;
14235;SDS011;7202;50.718;7.072;2022-08-20T10:10:26;5.90;;;5.25;;
14235;SDS011;7202;50.718;7.072;2022-08-20T10:12:55;5.20;;;4.70;;
14235;SDS011;7202;50.718;7.072;2022-08-20T10:15:25;7.40;;;6.68;;
14235;SDS011;7202;50.718;7.072;2022-08-20T10:17:54;10.00;;;7.43;;
14235;SDS011;7202;50.718;7.072;2022-08-20T10:20:23;8.02;;;7.15;;
14235;SDS011;7202;50.718;7.072;2022-08-20T10:22:53;6.95;;;6.22;;
14235;SDS011;7202;50.718;7.072;2022-08-20T10:25:22;7.45;;;6.75;;
14235;SDS011;7202;50.718;7.072;2022-08-20T10:27:51;7.25;;;6.30;;
14235;SDS011;7202;50.718;7.072;2022-08-20T10:30:19;7.80;;;7.10;;
14235;SDS011;7202;50.718;7.072;2022-08-20T10:32:48;8.60;;;7.80;;
14235;SDS011;7202;50.718;7.072;2022-08-20T10:35:17;8.40;;;7.47;;
14235;SDS011;7202;50.718;7.072;2022-08-20T10:37:46;9.20;;;7.38;;
14235;SDS011;7202;50.718;7.072;2022-08-20T10:40:16;6.68;;;6.18;;
14235;SDS011;7202;50.718;7.072;2022-08-20T10:42:45;6.85;;;6.20;;
14235;SDS011;7202;50.718;7.072;2022-08-20T10:45:14;9.43;;;6.63;;
14235;SDS011;7202;50.718;7.072;2022-08-20T10:47:43;7.93;;;6.30;;
14235;SDS011;7202;50.718;7.072;2022-08-20T10:50:12;7.60;;;6.30;;
14235;SDS011;7202;50.718;7.072;2022-08-20T10:52:45;7.97;;;5.78;;
14235;SDS011;7202;50.718;7.072;2022-08-20T10:55:15;8.13;;;5.60;;
14235;SDS011;7202;50.718;7.072;2022-08-20T10:57:44;8.70;;;6.00;;
14235;SDS011;7202;50.718;7.072;2022-08-20T11:00:14;6.22;;;5.05;;
14235;SDS011;7202;50.718;7.072;2022-08-20T11:02:44;9.38;;;5.40;;
14235;SDS011;7202;50.718;7.072;2022-08-20T11:05:13;6.47;;;5.45;;
14235;SDS011;7202;50.718;7.072;2022-08-20T11:07:42;6.68;;;4.68;;
14235;SDS011;7202;50.718;7.072;2022-08-20T11:10:27;10.93;;;5.68;;
14235;SDS011;7202;50.718;7.072;2022-08-20T11:12:59;8.18;;;5.80;;
14235;SDS011;7202;50.718;7.072;2022-08-20T11:15:28;6.95;;;5.22;;
14235;SDS011;7202;50.718;7.072;2022-08-20T11:17:56;7.85;;;5.40;;
14235;SDS011;7202;50.718;7.072;2022-08-20T11:20:25;5.15;;;4.50;;
14235;SDS011;7202;50.718;7.072;2022-08-20T11:22:53;4.68;;;4.18;;
14235;SDS011;7202;50.718;7.072;2022-08-20T11:25:22;7.93;;;4.10;;
14235;SDS011;7202;50.718;7.072;2022-08-20T11:27:53;5.10;;;4.10;;
14235;SDS011;7202;50.718;7.072;2022-08-20T11:30:23;7.72;;;3.42;;
14235;SDS011;7202;50.718;7.072;2022-08-20T11:32:54;5.90;;;3.63;;
14235;SDS011;7202;50.718;7.072;2022-08-20T11:35:24;8.70;;;4.05;;
14235;SDS011;7202;50.718;7.072;2022-08-20T11:38:14;4.70;;;3.30;;
14235;SDS011;7202;50.718;7.072;2022-08-20T11:40:42;6.43;;;3.72;;
14235;SDS011;7202;50.718;7.072;2022-08-20T11:43:13;5.47;;;3.20;;
14235;SDS011;7202;50.718;7.072;2022-08-20T11:45:44;7.65;;;2.75;;
14235;SDS011;7202;50.718;7.072;2022-08-20T11:48:15;4.95;;;3.10;;
14235;SDS011;7202;50.718;7.072;2022-08-20T11:50:44;5.65;;;3.30;;
14235;SDS011;7202;50.718;7.072;2022-08-20T11:53:13;4.82;;;3.22;;
14235;SDS011;7202;50.718;7.072;2022-08-20T11:55:42;7.05;;;3.63;;
14235;SDS011;7202;50.718;7.072;2022-08-20T11:58:11;3.58;;;2.67;;
14235;SDS011;7202;50.718;7.072;2022-08-20T12:00:41;4.90;;;2.95;;
14235;SDS011;7202;50.718;7.072;2022-08-20T12:03:10;4.80;;;3.78;;
14235;SDS011;7202;50.718;7.072;2022-08-20T12:05:39;4.45;;;3.75;;
14235;SDS011;7202;50.718;7.072;2022-08-20T12:08:10;6.15;;;4.00;;
14235;SDS011;7202;50.718;7.072;2022-08-20T12:10:54;4.75;;;3.45;;
14235;SDS011;7202;50.718;7.072;2022-08-20T12:13:24;6.75;;;3.40;;
14235;SDS011;7202;50.718;7.072;2022-08-20T12:16:14;6.72;;;4.43;;
14235;SDS011;7202;50.718;7.072;2022-08-20T12:18:43;5.15;;;3.47;;
14235;SDS011;7202;50.718;7.072;2022-08-20T12:21:12;7.50;;;4.18;;
14235;SDS011;7202;50.718;7.072;2022-08-20T12:23:41;4.55;;;3.67;;
14235;SDS011;7202;50.718;7.072;2022-08-20T12:26:11;7.28;;;3.95;;
14235;SDS011;7202;50.718;7.072;2022-08-20T12:28:39;6.68;;;4.25;;
14235;SDS011;7202;50.718;7.072;2022-08-20T12:31:08;9.63;;;3.95;;
14235;SDS011;7202;50.718;7.072;2022-08-20T12:33:38;7.57;;;4.28;;
14235;SDS011;7202;50.718;7.072;2022-08-20T12:36:07;7.10;;;3.53;;
14235;SDS011;7202;50.718;7.072;2022-08-20T12:38:36;9.98;;;4.00;;
14235;SDS011;7202;50.718;7.072;2022-08-20T12:41:05;7.63;;;3.95;;
14235;SDS011;7202;50.718;7.072;2022-08-20T12:43:35;5.07;;;3.58;;
14235;SDS011;7202;50.718;7.072;2022-08-20T12:46:03;5.10;;;3.17;;
14235;SDS011;7202;50.718;7.072;2022-08-20T12:48:32;4.40;;;3.28;;
14235;SDS011;7202;50.718;7.072;2022-08-20T12:51:02;8.77;;;3.83;;
14235;SDS011;7202;50.718;7.072;2022-08-20T12:53:31;5.85;;;3.88;;
14235;SDS011;7202;50.718;7.072;2022-08-20T12:56:02;7.18;;;4.20;;
14235;SDS011;7202;50.718;7.072;2022-08-20T12:58:31;7.10;;;4.15;;
14235;SDS011;7202;50.718;7.072;2022-08-20T13:01:00;7.10;;;4.53;;
14235;SDS011;7202;50.718;7.072;2022-08-20T13:03:29;6.68;;;4.00;;
14235;SDS011;7202;50.718;7.072;2022-08-20T13:05:59;9.70;;;4.90;;
14235;SDS011;7202;50.718;7.072;2022-08-20T13:08:29;5.78;;;4.00;;
14235;SDS011;7202;50.718;7.072;2022-08-20T13:10:58;9.40;;;4.30;;
14235;SDS011;7202;50.718;7.072;2022-08-20T13:13:26;8.80;;;4.57;;
14235;SDS011;7202;50.718;7.072;2022-08-20T13:15:55;9.27;;;4.32;;
14235;SDS011;7202;50.718;7.072;2022-08-20T13:18:23;10.27;;;4.28;;
14235;SDS011;7202;50.718;7.072;2022-08-20T13:20:52;6.05;;;3.78;;
14235;SDS011;7202;50.718;7.072;2022-08-20T13:23:21;6.05;;;4.15;;
14235;SDS011;7202;50.718;7.072;2022-08-20T13:25:51;7.60;;;4.40;;
14235;SDS011;7202;50.718;7.072;2022-08-20T13:28:19;9.10;;;4.80;;
14235;SDS011;7202;50.718;7.072;2022-08-20T13:30:48;10.90;;;4.43;;
14235;SDS011;7202;50.718;7.072;2022-08-20T13:33:17;4.78;;;3.85;;
14235;SDS011;7202;50.718;7.072;2022-08-20T13:35:45;8.43;;;3.97;;
14235;SDS011;7202;50.718;7.072;2022-08-20T13:38:14;8.23;;;4.05;;
14235;SDS011;7202;50.718;7.072;2022-08-20T13:40:42;8.18;;;4.03;;
14235;SDS011;7202;50.718;7.072;2022-08-20T13:43:16;9.88;;;4.38;;
14235;SDS011;7202;50.718;7.072;2022-08-20T13:45:45;8.98;;;3.30;;
14235;SDS011;7202;50.718;7.072;2022-08-20T13:48:13;6.53;;;3.20;;
14235;SDS011;7202;50.718;7.072;2022-08-20T13:50:42;7.05;;;3.47;;
14235;SDS011;7202;50.718;7.072;2022-08-20T13:53:13;9.02;;;3.33;;
14235;SDS011;7202;50.718;7.072;2022-08-20T13:55:44;5.40;;;2.65;;
14235;SDS011;7202;50.718;7.072;2022-08-20T13:58:12;10.00;;;3.05;;
14235;SDS011;7202;50.718;7.072;2022-08-20T14:00:43;6.15;;;2.58;;
14235;SDS011;7202;50.718;7.072;2022-08-20T14:03:13;7.57;;;2.85;;
14235;SDS011;7202;50.718;7.072;2022-08-20T14:05:51;9.07;;;3.58;;
14235;SDS011;7202;50.718;7.072;2022-08-20T14:08:20;8.80;;;3.40;;
14235;SDS011;7202;50.718;7.072;2022-08-20T14:10:50;10.93;;;3.22;;
14235;SDS011;7202;50.718;7.072;2022-08-20T14:13:21;8.23;;;3.30;;
14235;SDS011;7202;50.718;7.072;2022-08-20T14:15:52;7.45;;;3.03;;
14235;SDS011;7202;50.718;7.072;2022-08-20T14:18:21;8.07;;;3.67;;
14235;SDS011;7202;50.718;7.072;2022-08-20T14:20:50;6.85;;;3.15;;
14235;SDS011;7202;50.718;7.072;2022-08-20T14:23:19;7.03;;;3.03;;
14235;SDS011;7202;50.718;7.072;2022-08-20T14:25:47;7.85;;;3.83;;
14235;SDS011;7202;50.718;7.072;2022-08-20T14:28:17;7.63;;;3.50;;
14235;SDS011;7202;50.718;7.072;2022-08-20T14:30:47;6.90;;;3.08;;
14235;SDS011;7202;50.718;7.072;2022-08-20T14:33:21;8.23;;;3.90;;
14235;SDS011;7202;50.718;7.072;2022-08-20T14:35:50;8.68;;;3.42;;
14235;SDS011;7202;50.718;7.072;2022-08-20T14:38:19;7.20;;;2.78;;
14235;SDS011;7202;50.718;7.072;2022-08-20T14:40:48;8.55;;;3.25;;
14235;SDS011;7202;50.718;7.072;2022-08-20T14:43:16;7.47;;;3.00;;
14235;SDS011;7202;50.718;7.072;2022-08-20T14:45:45;6.85;;;3.33;;
14235;SDS011;7202;50.718;7.072;2022-08-20T14:48:14;7.70;;;3.00;;
14235;SDS011;7202;50.718;7.072;2022-08-20T14:50:44;8.73;;;3.42;;
14235;SDS011;7202;50.718;7.072;2022-08-20T14:53:12;5.65;;;2.45;;
14235;SDS011;7202;50.718;7.072;2022-08-20T14:55:41;9.63;;;3.47;;
14235;SDS011;7202;50.718;7.072;2022-08-20T14:58:10;8.98;;;3.13;;
14235;SDS011;7202;50.718;7.072;2022-08-20T15:00:40;5.25;;;2.67;;
14235;SDS011;7202;50.718;7.072;2022-08-20T15:03:10;7.38;;;3.63;;
14235;SDS011;7202;50.718;7.072;2022-08-20T15:05:40;8.43;;;3.00;;
14235;SDS011;7202;50.718;7.072;2022-08-20T15:08:11;5.63;;;2.65;;
14235;SDS011;7202;50.718;7.072;2022-08-20T15:10:39;6.15;;;2.33;;
14235;SDS011;7202;50.718;7.072;2022-08-20T15:13:08;4.65;;;2.30;;
14235;SDS011;7202;50.718;7.072;2022-08-20T15:15:37;7.32;;;2.97;;
14235;SDS011;7202;50.718;7.072;2022-08-20T15:18:06;9.60;;;2.78;;
14235;SDS011;7202;50.718;7.072;2022-08-20T15:20:35;5.43;;;2.55;;